sensor_id;sensor_type;location;lat;lon;timestamp;noise_LAeq;noise_LA_min;noise_LA_max;noise_LA01;noise_LA95
71030;Laerm;63723;51.436;5.976;2024-02-21T00:00:04;58.92;55.99;61.38;;
71030;Laerm;63723;51.436;5.976;2024-02-21T00:00:15;58.05;55.07;60.73;;
71030;Laerm;63723;51.436;5.976;2024-02-21T00:00:25;57.54;53.49;59.79;;
71030;Laerm;63723;51.436;5.976;2024-02-21T00:00:35;57.57;54.47;60.07;;
71030;Laerm;63723;51.436;5.976;2024-02-21T00:00:48;57.62;54.39;60.36;;
71030;Laerm;63723;51.436;5.976;2024-02-21T00:00:58;57.66;54.03;59.82;;
71030;Laerm;63723;51.436;5.976;2024-02-21T00:01:08;57.61;55.00;59.85;;
71030;Laerm;63723;51.436;5.976;2024-02-21T00:01:24;57.63;54.56;60.10;;
71030;Laerm;63723;51.436;5.976;2024-02-21T00:01:34;58.68;54.51;61.21;;
71030;Laerm;63723;51.436;5.976;2024-02-21T00:01:44;59.50;57.09;61.20;;
71030;Laerm;63723;51.436;5.976;2024-02-21T00:01:54;59.13;56.38;60.84;;
71030;Laerm;63723;51.436;5.976;2024-02-21T00:02:05;59.21;57.01;61.28;;
71030;Laerm;63723;51.436;5.976;2024-02-21T00:02:15;59.04;55.82;60.63;;
71030;Laerm;63723;51.436;5.976;2024-02-21T00:02:25;59.74;57.32;61.62;;
71030;Laerm;63723;51.436;5.976;2024-02-21T00:02:35;59.23;56.86;61.48;;
71030;Laerm;63723;51.436;5.976;2024-02-21T00:02:46;59.59;57.14;61.51;;
71030;Laerm;63723;51.436;5.976;2024-02-21T00:02:56;60.04;58.11;61.79;;
71030;Laerm;63723;51.436;5.976;2024-02-21T00:03:09;59.55;56.88;61.36;;
71030;Laerm;63723;51.436;5.976;2024-02-21T00:03:20;59.57;56.82;61.62;;
71030;Laerm;63723;51.436;5.976;2024-02-21T00:03:30;59.30;56.65;61.22;;
71030;Laerm;63723;51.436;5.976;2024-02-21T00:03:40;59.07;56.79;60.81;;
71030;Laerm;63723;51.436;5.976;2024-02-21T00:03:51;59.38;57.28;61.43;;
71030;Laerm;63723;51.436;5.976;2024-02-21T00:04:02;59.34;57.08;61.93;;
71030;Laerm;63723;51.436;5.976;2024-02-21T00:04:12;59.23;56.96;61.15;;
71030;Laerm;63723;51.436;5.976;2024-02-21T00:04:22;59.34;57.62;61.25;;
71030;Laerm;63723;51.436;5.976;2024-02-21T00:04:33;59.54;57.37;61.28;;
71030;Laerm;63723;51.436;5.976;2024-02-21T00:04:43;59.16;56.96;60.71;;
71030;Laerm;63723;51.436;5.976;2024-02-21T00:04:53;59.02;55.98;61.34;;
71030;Laerm;63723;51.436;5.976;2024-02-21T00:05:06;59.04;57.02;60.77;;
71030;Laerm;63723;51.436;5.976;2024-02-21T00:05:17;59.66;56.55;62.17;;
71030;Laerm;63723;51.436;5.976;2024-02-21T00:05:27;59.52;56.84;61.45;;
71030;Laerm;63723;51.436;5.976;2024-02-21T00:05:37;59.25;56.97;61.05;;
71030;Laerm;63723;51.436;5.976;2024-02-21T00:05:48;59.10;55.97;60.94;;
71030;Laerm;63723;51.436;5.976;2024-02-21T00:05:58;59.12;56.34;61.02;;
71030;Laerm;63723;51.436;5.976;2024-02-21T00:06:08;59.25;57.26;61.89;;
71030;Laerm;63723;51.436;5.976;2024-02-21T00:06:18;59.51;56.93;61.63;;
71030;Laerm;63723;51.436;5.976;2024-02-21T00:06:29;59.10;56.92;61.17;;
71030;Laerm;63723;51.436;5.976;2024-02-21T00:06:39;59.26;56.32;60.99;;
71030;Laerm;63723;51.436;5.976;2024-02-21T00:06:49;59.20;57.08;61.47;;
71030;Laerm;63723;51.436;5.976;2024-02-21T00:06:59;59.19;57.34;61.11;;
71030;Laerm;63723;51.436;5.976;2024-02-21T00:07:10;59.39;57.42;61.24;;
71030;Laerm;63723;51.436;5.976;2024-02-21T00:07:20;59.30;57.48;60.96;;
71030;Laerm;63723;51.436;5.976;2024-02-21T00:07:30;59.49;56.56;61.29;;
71030;Laerm;63723;51.436;5.976;2024-02-21T00:07:40;59.47;57.10;61.53;;
71030;Laerm;63723;51.436;5.976;2024-02-21T00:07:50;59.40;57.48;61.19;;
71030;Laerm;63723;51.436;5.976;2024-02-21T00:08:01;58.78;55.19;60.79;;
71030;Laerm;63723;51.436;5.976;2024-02-21T00:08:13;59.29;56.31;61.60;;
71030;Laerm;63723;51.436;5.976;2024-02-21T00:08:23;58.95;56.50;60.61;;
71030;Laerm;63723;51.436;5.976;2024-02-21T00:08:33;59.17;57.39;61.07;;
71030;Laerm;63723;51.436;5.976;2024-02-21T00:08:43;59.06;56.74;61.27;;
71030;Laerm;63723;51.436;5.976;2024-02-21T00:08:54;58.98;56.26;60.85;;
71030;Laerm;63723;51.436;5.976;2024-02-21T00:09:04;59.03;56.60;60.82;;
71030;Laerm;63723;51.436;5.976;2024-02-21T00:09:14;59.03;56.59;60.87;;
71030;Laerm;63723;51.436;5.976;2024-02-21T00:09:24;59.10;56.66;61.13;;
71030;Laerm;63723;51.436;5.976;2024-02-21T00:09:35;59.01;56.58;61.11;;
71030;Laerm;63723;51.436;5.976;2024-02-21T00:09:45;59.19;56.96;60.85;;
71030;Laerm;63723;51.436;5.976;2024-02-21T00:09:55;59.18;56.62;61.73;;
71030;Laerm;63723;51.436;5.976;2024-02-21T00:10:06;59.00;56.26;61.02;;
71030;Laerm;63723;51.436;5.976;2024-02-21T00:10:16;59.34;56.97;61.57;;
71030;Laerm;63723;51.436;5.976;2024-02-21T00:10:28;59.82;57.12;62.44;;
71030;Laerm;63723;51.436;5.976;2024-02-21T00:10:38;59.37;56.81;61.16;;
71030;Laerm;63723;51.436;5.976;2024-02-21T00:10:49;59.47;57.35;61.93;;
71030;Laerm;63723;51.436;5.976;2024-02-21T00:10:59;59.63;56.79;61.95;;
71030;Laerm;63723;51.436;5.976;2024-02-21T00:11:09;59.42;56.95;62.19;;
71030;Laerm;63723;51.436;5.976;2024-02-21T00:11:19;59.19;56.83;61.32;;
71030;Laerm;63723;51.436;5.976;2024-02-21T00:11:30;59.69;57.20;62.61;;
71030;Laerm;63723;51.436;5.976;2024-02-21T00:11:40;59.77;56.76;62.29;;
71030;Laerm;63723;51.436;5.976;2024-02-21T00:11:50;59.71;56.42;63.00;;
71030;Laerm;63723;51.436;5.976;2024-02-21T00:12:00;59.36;57.24;61.38;;
71030;Laerm;63723;51.436;5.976;2024-02-21T00:12:11;59.49;57.14;61.42;;
71030;Laerm;63723;51.436;5.976;2024-02-21T00:12:23;59.59;57.11;61.83;;
71030;Laerm;63723;51.436;5.976;2024-02-21T00:12:34;59.25;56.24;61.47;;
71030;Laerm;63723;51.436;5.976;2024-02-21T00:12:44;59.18;56.37;61.27;;
71030;Laerm;63723;51.436;5.976;2024-02-21T00:12:55;59.54;57.64;61.54;;
71030;Laerm;63723;51.436;5.976;2024-02-21T00:13:05;59.50;56.18;61.93;;
71030;Laerm;63723;51.436;5.976;2024-02-21T00:13:15;59.17;55.99;61.80;;
71030;Laerm;63723;51.436;5.976;2024-02-21T00:13:26;60.09;57.53;62.21;;
71030;Laerm;63723;51.436;5.976;2024-02-21T00:13:36;59.37;55.57;61.84;;
71030;Laerm;63723;51.436;5.976;2024-02-21T00:13:46;59.45;57.03;61.36;;
71030;Laerm;63723;51.436;5.976;2024-02-21T00:13:56;59.71;57.18;61.62;;
71030;Laerm;63723;51.436;5.976;2024-02-21T00:14:07;59.77;57.16;62.05;;
71030;Laerm;63723;51.436;5.976;2024-02-21T00:14:17;59.08;56.21;61.43;;
71030;Laerm;63723;51.436;5.976;2024-02-21T00:14:27;58.56;55.53;60.93;;
71030;Laerm;63723;51.436;5.976;2024-02-21T00:14:37;59.01;56.52;61.00;;
71030;Laerm;63723;51.436;5.976;2024-02-21T00:14:48;58.97;56.32;61.09;;
71030;Laerm;63723;51.436;5.976;2024-02-21T00:14:58;59.18;56.37;61.26;;
71030;Laerm;63723;51.436;5.976;2024-02-21T00:15:08;59.08;56.50;60.83;;
71030;Laerm;63723;51.436;5.976;2024-02-21T00:15:19;59.08;57.01;60.87;;
71030;Laerm;63723;51.436;5.976;2024-02-21T00:15:29;59.17;56.38;61.16;;
71030;Laerm;63723;51.436;5.976;2024-02-21T00:15:39;60.08;57.26;62.11;;
71030;Laerm;63723;51.436;5.976;2024-02-21T00:15:49;59.71;57.28;61.51;;
71030;Laerm;63723;51.436;5.976;2024-02-21T00:16:00;59.62;57.27;61.86;;
71030;Laerm;63723;51.436;5.976;2024-02-21T00:16:10;59.75;57.54;61.91;;
71030;Laerm;63723;51.436;5.976;2024-02-21T00:16:21;59.63;57.29;61.98;;
71030;Laerm;63723;51.436;5.976;2024-02-21T00:16:31;59.97;57.05;62.23;;
71030;Laerm;63723;51.436;5.976;2024-02-21T00:16:42;59.89;58.01;61.52;;
71030;Laerm;63723;51.436;5.976;2024-02-21T00:16:52;59.80;57.94;61.68;;
71030;Laerm;63723;51.436;5.976;2024-02-21T00:17:02;59.41;56.84;61.49;;
71030;Laerm;63723;51.436;5.976;2024-02-21T00:17:12;59.24;57.06;61.72;;
71030;Laerm;63723;51.436;5.976;2024-02-21T00:17:23;59.24;56.92;61.51;;
71030;Laerm;63723;51.436;5.976;2024-02-21T00:17:33;59.18;56.82;61.52;;
71030;Laerm;63723;51.436;5.976;2024-02-21T00:17:43;59.82;56.99;62.56;;
71030;Laerm;63723;51.436;5.976;2024-02-21T00:17:54;59.78;55.82;62.56;;
71030;Laerm;63723;51.436;5.976;2024-02-21T00:18:04;59.65;56.97;62.21;;
71030;Laerm;63723;51.436;5.976;2024-02-21T00:18:15;60.00;57.12;62.52;;
71030;Laerm;63723;51.436;5.976;2024-02-21T00:18:25;59.48;57.18;61.81;;
71030;Laerm;63723;51.436;5.976;2024-02-21T00:18:35;60.26;57.30;62.49;;
71030;Laerm;63723;51.436;5.976;2024-02-21T00:18:45;59.70;56.09;62.33;;
71030;Laerm;63723;51.436;5.976;2024-02-21T00:18:56;59.89;56.78;62.62;;
71030;Laerm;63723;51.436;5.976;2024-02-21T00:19:06;59.85;57.70;62.28;;
71030;Laerm;63723;51.436;5.976;2024-02-21T00:19:16;59.67;57.20;62.31;;
71030;Laerm;63723;51.436;5.976;2024-02-21T00:19:27;60.09;56.44;62.27;;
71030;Laerm;63723;51.436;5.976;2024-02-21T00:19:37;59.11;56.88;61.76;;
71030;Laerm;63723;51.436;5.976;2024-02-21T00:19:47;59.08;56.40;61.87;;
71030;Laerm;63723;51.436;5.976;2024-02-21T00:19:57;59.44;55.43;62.44;;
71030;Laerm;63723;51.436;5.976;2024-02-21T00:20:08;59.55;56.79;63.00;;
71030;Laerm;63723;51.436;5.976;2024-02-21T00:20:18;60.17;56.83;62.91;;
71030;Laerm;63723;51.436;5.976;2024-02-21T00:20:28;59.36;56.20;61.85;;
71030;Laerm;63723;51.436;5.976;2024-02-21T00:20:39;59.41;56.45;62.25;;
71030;Laerm;63723;51.436;5.976;2024-02-21T00:20:49;59.30;56.38;61.80;;
71030;Laerm;63723;51.436;5.976;2024-02-21T00:20:59;59.05;56.01;61.13;;
71030;Laerm;63723;51.436;5.976;2024-02-21T00:21:11;59.02;56.36;60.97;;
71030;Laerm;63723;51.436;5.976;2024-02-21T00:21:28;59.17;56.40;62.42;;
71030;Laerm;63723;51.436;5.976;2024-02-21T00:21:38;58.87;55.82;61.89;;
71030;Laerm;63723;51.436;5.976;2024-02-21T00:21:48;59.52;56.37;61.90;;
71030;Laerm;63723;51.436;5.976;2024-02-21T00:21:58;59.73;57.04;62.22;;
71030;Laerm;63723;51.436;5.976;2024-02-21T00:22:09;58.98;56.14;61.80;;
71030;Laerm;63723;51.436;5.976;2024-02-21T00:22:19;59.48;56.79;63.12;;
71030;Laerm;63723;51.436;5.976;2024-02-21T00:22:29;60.27;56.45;63.18;;
71030;Laerm;63723;51.436;5.976;2024-02-21T00:22:41;59.39;57.15;61.49;;
71030;Laerm;63723;51.436;5.976;2024-02-21T00:22:51;59.08;57.03;60.85;;
71030;Laerm;63723;51.436;5.976;2024-02-21T00:23:02;58.93;56.66;60.69;;
71030;Laerm;63723;51.436;5.976;2024-02-21T00:23:12;58.72;56.42;60.69;;
71030;Laerm;63723;51.436;5.976;2024-02-21T00:23:23;58.90;56.13;60.97;;
71030;Laerm;63723;51.436;5.976;2024-02-21T00:23:33;58.94;56.50;61.24;;
71030;Laerm;63723;51.436;5.976;2024-02-21T00:23:44;58.96;56.94;61.00;;
71030;Laerm;63723;51.436;5.976;2024-02-21T00:23:55;59.17;55.49;62.00;;
71030;Laerm;63723;51.436;5.976;2024-02-21T00:24:06;59.32;56.64;61.14;;
71030;Laerm;63723;51.436;5.976;2024-02-21T00:24:16;59.05;56.71;61.38;;
71030;Laerm;63723;51.436;5.976;2024-02-21T00:24:26;58.81;56.59;60.79;;
71030;Laerm;63723;51.436;5.976;2024-02-21T00:24:37;59.06;56.41;61.10;;
71030;Laerm;63723;51.436;5.976;2024-02-21T00:24:47;59.13;56.31;61.13;;
71030;Laerm;63723;51.436;5.976;2024-02-21T00:24:57;58.79;56.25;60.91;;
71030;Laerm;63723;51.436;5.976;2024-02-21T00:25:08;58.78;56.11;61.38;;
71030;Laerm;63723;51.436;5.976;2024-02-21T00:25:18;59.04;56.68;61.08;;
71030;Laerm;63723;51.436;5.976;2024-02-21T00:25:28;58.85;55.65;61.67;;
71030;Laerm;63723;51.436;5.976;2024-02-21T00:25:39;59.08;55.80;61.33;;
71030;Laerm;63723;51.436;5.976;2024-02-21T00:25:49;58.91;56.79;61.03;;
71030;Laerm;63723;51.436;5.976;2024-02-21T00:25:59;59.26;56.55;61.53;;
71030;Laerm;63723;51.436;5.976;2024-02-21T00:26:10;58.97;57.09;60.82;;
71030;Laerm;63723;51.436;5.976;2024-02-21T00:26:20;59.04;56.98;61.80;;
71030;Laerm;63723;51.436;5.976;2024-02-21T00:26:31;58.90;56.19;60.92;;
71030;Laerm;63723;51.436;5.976;2024-02-21T00:26:41;58.96;56.08;60.70;;
71030;Laerm;63723;51.436;5.976;2024-02-21T00:26:51;59.26;57.13;61.10;;
71030;Laerm;63723;51.436;5.976;2024-02-21T00:27:01;59.29;56.82;61.56;;
71030;Laerm;63723;51.436;5.976;2024-02-21T00:27:11;59.38;56.80;62.22;;
71030;Laerm;63723;51.436;5.976;2024-02-21T00:27:22;58.69;55.36;60.53;;
71030;Laerm;63723;51.436;5.976;2024-02-21T00:27:32;58.93;56.61;61.19;;
71030;Laerm;63723;51.436;5.976;2024-02-21T00:27:42;58.56;56.15;60.85;;
71030;Laerm;63723;51.436;5.976;2024-02-21T00:27:52;58.59;55.95;60.50;;
71030;Laerm;63723;51.436;5.976;2024-02-21T00:28:04;58.90;55.42;61.86;;
71030;Laerm;63723;51.436;5.976;2024-02-21T00:28:15;58.57;55.40;60.74;;
71030;Laerm;63723;51.436;5.976;2024-02-21T00:28:26;58.14;54.45;60.29;;
71030;Laerm;63723;51.436;5.976;2024-02-21T00:28:36;58.21;55.21;60.34;;
71030;Laerm;63723;51.436;5.976;2024-02-21T00:28:46;58.22;54.06;60.58;;
71030;Laerm;63723;51.436;5.976;2024-02-21T00:28:56;58.07;55.42;60.54;;
71030;Laerm;63723;51.436;5.976;2024-02-21T00:29:07;58.00;54.74;59.96;;
71030;Laerm;63723;51.436;5.976;2024-02-21T00:29:17;57.34;51.05;61.12;;
71030;Laerm;63723;51.436;5.976;2024-02-21T00:29:27;55.59;52.13;59.73;;
71030;Laerm;63723;51.436;5.976;2024-02-21T00:29:37;55.88;52.55;60.48;;
71030;Laerm;63723;51.436;5.976;2024-02-21T00:29:48;55.62;52.55;61.16;;
71030;Laerm;63723;51.436;5.976;2024-02-21T00:29:58;55.38;52.63;57.56;;
71030;Laerm;63723;51.436;5.976;2024-02-21T00:30:08;55.48;52.12;59.78;;
71030;Laerm;63723;51.436;5.976;2024-02-21T00:30:19;55.53;52.62;61.94;;
71030;Laerm;63723;51.436;5.976;2024-02-21T00:30:29;56.17;53.03;59.45;;
71030;Laerm;63723;51.436;5.976;2024-02-21T00:30:39;57.78;54.25;61.26;;
71030;Laerm;63723;51.436;5.976;2024-02-21T00:30:50;56.60;53.53;61.22;;
71030;Laerm;63723;51.436;5.976;2024-02-21T00:31:00;55.13;52.15;60.48;;
71030;Laerm;63723;51.436;5.976;2024-02-21T00:31:11;55.21;50.92;60.43;;
71030;Laerm;63723;51.436;5.976;2024-02-21T00:31:21;56.41;52.31;60.36;;
71030;Laerm;63723;51.436;5.976;2024-02-21T00:31:31;55.38;52.48;57.61;;
71030;Laerm;63723;51.436;5.976;2024-02-21T00:31:42;56.05;52.26;60.32;;
71030;Laerm;63723;51.436;5.976;2024-02-21T00:31:52;55.05;51.39;61.38;;
71030;Laerm;63723;51.436;5.976;2024-02-21T00:32:02;55.69;50.60;59.95;;
71030;Laerm;63723;51.436;5.976;2024-02-21T00:32:12;55.77;52.17;62.12;;
71030;Laerm;63723;51.436;5.976;2024-02-21T00:32:23;56.27;52.01;61.08;;
71030;Laerm;63723;51.436;5.976;2024-02-21T00:32:33;56.51;52.01;60.77;;
71030;Laerm;63723;51.436;5.976;2024-02-21T00:32:44;54.99;51.82;59.59;;
71030;Laerm;63723;51.436;5.976;2024-02-21T00:32:54;55.49;52.49;59.66;;
71030;Laerm;63723;51.436;5.976;2024-02-21T00:33:05;55.72;51.84;60.98;;
71030;Laerm;63723;51.436;5.976;2024-02-21T00:33:15;55.57;51.73;59.56;;
71030;Laerm;63723;51.436;5.976;2024-02-21T00:33:26;57.37;52.46;62.23;;
71030;Laerm;63723;51.436;5.976;2024-02-21T00:33:36;56.84;52.76;61.32;;
71030;Laerm;63723;51.436;5.976;2024-02-21T00:33:46;56.59;53.10;61.66;;
71030;Laerm;63723;51.436;5.976;2024-02-21T00:33:56;55.89;52.90;61.41;;
71030;Laerm;63723;51.436;5.976;2024-02-21T00:34:07;56.29;53.68;60.79;;
71030;Laerm;63723;51.436;5.976;2024-02-21T00:34:18;58.49;53.06;61.48;;
71030;Laerm;63723;51.436;5.976;2024-02-21T00:34:28;59.51;57.54;61.93;;
71030;Laerm;63723;51.436;5.976;2024-02-21T00:34:38;59.37;56.77;61.59;;
71030;Laerm;63723;51.436;5.976;2024-02-21T00:34:48;59.11;56.73;62.06;;
71030;Laerm;63723;51.436;5.976;2024-02-21T00:34:59;59.11;56.48;61.40;;
71030;Laerm;63723;51.436;5.976;2024-02-21T00:35:09;58.94;56.59;61.11;;
71030;Laerm;63723;51.436;5.976;2024-02-21T00:35:19;58.85;55.92;61.12;;
71030;Laerm;63723;51.436;5.976;2024-02-21T00:35:30;58.90;56.67;61.19;;
71030;Laerm;63723;51.436;5.976;2024-02-21T00:35:40;59.50;56.86;62.02;;
71030;Laerm;63723;51.436;5.976;2024-02-21T00:35:50;59.20;56.80;61.43;;
71030;Laerm;63723;51.436;5.976;2024-02-21T00:36:00;59.45;56.45;61.42;;
71030;Laerm;63723;51.436;5.976;2024-02-21T00:36:11;59.04;56.92;61.99;;
71030;Laerm;63723;51.436;5.976;2024-02-21T00:36:21;59.14;56.83;61.58;;
71030;Laerm;63723;51.436;5.976;2024-02-21T00:36:31;59.48;57.16;61.54;;
71030;Laerm;63723;51.436;5.976;2024-02-21T00:36:41;59.21;56.66;61.32;;
71030;Laerm;63723;51.436;5.976;2024-02-21T00:36:52;59.53;56.92;61.30;;
71030;Laerm;63723;51.436;5.976;2024-02-21T00:37:02;59.87;56.82;62.45;;
71030;Laerm;63723;51.436;5.976;2024-02-21T00:37:12;59.61;56.97;61.38;;
71030;Laerm;63723;51.436;5.976;2024-02-21T00:37:23;59.78;57.29;61.48;;
71030;Laerm;63723;51.436;5.976;2024-02-21T00:37:33;60.30;57.75;62.60;;
71030;Laerm;63723;51.436;5.976;2024-02-21T00:37:43;60.07;57.29;62.47;;
71030;Laerm;63723;51.436;5.976;2024-02-21T00:37:54;59.64;57.57;62.15;;
71030;Laerm;63723;51.436;5.976;2024-02-21T00:38:04;59.76;57.74;61.54;;
71030;Laerm;63723;51.436;5.976;2024-02-21T00:38:15;59.48;55.87;61.81;;
71030;Laerm;63723;51.436;5.976;2024-02-21T00:38:25;59.81;57.16;61.73;;
71030;Laerm;63723;51.436;5.976;2024-02-21T00:38:35;59.89;57.66;61.76;;
71030;Laerm;63723;51.436;5.976;2024-02-21T00:38:46;59.67;56.67;62.69;;
71030;Laerm;63723;51.436;5.976;2024-02-21T00:38:56;59.70;57.17;61.52;;
71030;Laerm;63723;51.436;5.976;2024-02-21T00:39:06;59.90;56.57;62.20;;
71030;Laerm;63723;51.436;5.976;2024-02-21T00:39:16;59.55;56.61;62.09;;
71030;Laerm;63723;51.436;5.976;2024-02-21T00:39:27;59.58;56.97;61.79;;
71030;Laerm;63723;51.436;5.976;2024-02-21T00:39:37;59.47;57.29;61.60;;
71030;Laerm;63723;51.436;5.976;2024-02-21T00:39:47;59.40;57.35;61.66;;
71030;Laerm;63723;51.436;5.976;2024-02-21T00:39:57;59.48;56.44;61.48;;
71030;Laerm;63723;51.436;5.976;2024-02-21T00:40:08;59.19;56.54;61.29;;
71030;Laerm;63723;51.436;5.976;2024-02-21T00:40:18;59.09;56.98;61.36;;
71030;Laerm;63723;51.436;5.976;2024-02-21T00:40:30;59.13;56.95;61.69;;
71030;Laerm;63723;51.436;5.976;2024-02-21T00:40:40;58.89;56.02;61.41;;
71030;Laerm;63723;51.436;5.976;2024-02-21T00:40:51;58.79;56.08;60.63;;
71030;Laerm;63723;51.436;5.976;2024-02-21T00:41:02;59.07;55.61;61.80;;
71030;Laerm;63723;51.436;5.976;2024-02-21T00:41:12;58.82;56.60;60.84;;
71030;Laerm;63723;51.436;5.976;2024-02-21T00:41:22;59.03;56.36;61.61;;
71030;Laerm;63723;51.436;5.976;2024-02-21T00:41:32;59.22;56.87;61.47;;
71030;Laerm;63723;51.436;5.976;2024-02-21T00:41:43;58.84;56.30;61.23;;
71030;Laerm;63723;51.436;5.976;2024-02-21T00:41:53;59.22;56.99;61.43;;
71030;Laerm;63723;51.436;5.976;2024-02-21T00:42:05;59.05;56.75;62.01;;
71030;Laerm;63723;51.436;5.976;2024-02-21T00:42:20;59.26;57.03;61.48;;
71030;Laerm;63723;51.436;5.976;2024-02-21T00:42:31;59.22;56.91;61.78;;
71030;Laerm;63723;51.436;5.976;2024-02-21T00:42:41;59.20;57.19;61.28;;
71030;Laerm;63723;51.436;5.976;2024-02-21T00:42:51;58.95;56.49;60.88;;
71030;Laerm;63723;51.436;5.976;2024-02-21T00:43:02;58.78;56.40;61.37;;
71030;Laerm;63723;51.436;5.976;2024-02-21T00:43:12;59.01;56.46;61.12;;
71030;Laerm;63723;51.436;5.976;2024-02-21T00:43:23;59.32;56.92;61.40;;
71030;Laerm;63723;51.436;5.976;2024-02-21T00:43:34;59.77;57.15;63.38;;
71030;Laerm;63723;51.436;5.976;2024-02-21T00:43:44;60.26;57.20;63.73;;
71030;Laerm;63723;51.436;5.976;2024-02-21T00:43:54;59.96;57.26;63.35;;
71030;Laerm;63723;51.436;5.976;2024-02-21T00:44:05;59.66;56.96;63.13;;
71030;Laerm;63723;51.436;5.976;2024-02-21T00:44:16;59.74;56.45;64.32;;
71030;Laerm;63723;51.436;5.976;2024-02-21T00:44:26;59.69;56.64;62.92;;
71030;Laerm;63723;51.436;5.976;2024-02-21T00:44:36;59.39;56.41;62.98;;
71030;Laerm;63723;51.436;5.976;2024-02-21T00:44:47;59.57;56.50;63.09;;
71030;Laerm;63723;51.436;5.976;2024-02-21T00:44:57;59.66;56.39;63.25;;
71030;Laerm;63723;51.436;5.976;2024-02-21T00:45:08;59.72;56.76;62.62;;
71030;Laerm;63723;51.436;5.976;2024-02-21T00:45:18;59.93;57.67;63.74;;
71030;Laerm;63723;51.436;5.976;2024-02-21T00:45:28;60.26;57.28;63.12;;
71030;Laerm;63723;51.436;5.976;2024-02-21T00:45:39;60.06;56.70;63.66;;
71030;Laerm;63723;51.436;5.976;2024-02-21T00:45:49;60.32;57.49;63.34;;
71030;Laerm;63723;51.436;5.976;2024-02-21T00:46:00;60.09;56.93;62.70;;
71030;Laerm;63723;51.436;5.976;2024-02-21T00:46:10;60.25;57.24;63.14;;
71030;Laerm;63723;51.436;5.976;2024-02-21T00:46:20;60.43;57.33;63.54;;
71030;Laerm;63723;51.436;5.976;2024-02-21T00:46:31;60.44;57.16;63.50;;
71030;Laerm;63723;51.436;5.976;2024-02-21T00:46:41;60.44;57.22;62.72;;
71030;Laerm;63723;51.436;5.976;2024-02-21T00:46:51;58.40;53.62;63.51;;
71030;Laerm;63723;51.436;5.976;2024-02-21T00:47:02;56.97;54.03;62.30;;
71030;Laerm;63723;51.436;5.976;2024-02-21T00:47:12;56.51;53.84;61.29;;
71030;Laerm;63723;51.436;5.976;2024-02-21T00:47:23;56.68;54.31;61.85;;
71030;Laerm;63723;51.436;5.976;2024-02-21T00:47:33;56.77;54.59;62.19;;
71030;Laerm;63723;51.436;5.976;2024-02-21T00:47:43;56.72;54.02;60.87;;
71030;Laerm;63723;51.436;5.976;2024-02-21T00:47:54;56.87;53.98;62.37;;
71030;Laerm;63723;51.436;5.976;2024-02-21T00:48:04;56.87;54.47;62.31;;
71030;Laerm;63723;51.436;5.976;2024-02-21T00:48:14;57.11;54.52;62.59;;
71030;Laerm;63723;51.436;5.976;2024-02-21T00:48:24;56.91;54.35;61.79;;
71030;Laerm;63723;51.436;5.976;2024-02-21T00:48:35;57.24;54.37;62.07;;
71030;Laerm;63723;51.436;5.976;2024-02-21T00:48:45;56.84;54.19;60.78;;
71030;Laerm;63723;51.436;5.976;2024-02-21T00:48:55;57.23;53.66;62.37;;
71030;Laerm;63723;51.436;5.976;2024-02-21T00:49:05;57.03;54.59;61.67;;
71030;Laerm;63723;51.436;5.976;2024-02-21T00:49:16;56.99;54.24;62.41;;
71030;Laerm;63723;51.436;5.976;2024-02-21T00:49:27;56.92;53.85;61.37;;
71030;Laerm;63723;51.436;5.976;2024-02-21T00:49:37;56.65;53.94;61.04;;
71030;Laerm;63723;51.436;5.976;2024-02-21T00:49:47;56.89;54.27;63.83;;
71030;Laerm;63723;51.436;5.976;2024-02-21T00:49:57;57.05;54.18;61.75;;
71030;Laerm;63723;51.436;5.976;2024-02-21T00:50:08;57.56;54.94;61.59;;
71030;Laerm;63723;51.436;5.976;2024-02-21T00:50:19;57.66;54.64;61.60;;
71030;Laerm;63723;51.436;5.976;2024-02-21T00:50:29;57.25;54.50;62.11;;
71030;Laerm;63723;51.436;5.976;2024-02-21T00:50:40;56.87;54.29;60.94;;
71030;Laerm;63723;51.436;5.976;2024-02-21T00:50:50;57.04;54.76;61.64;;
71030;Laerm;63723;51.436;5.976;2024-02-21T00:51:00;57.48;55.35;62.47;;
71030;Laerm;63723;51.436;5.976;2024-02-21T00:51:11;57.10;54.57;61.72;;
71030;Laerm;63723;51.436;5.976;2024-02-21T00:51:21;57.47;54.63;62.30;;
71030;Laerm;63723;51.436;5.976;2024-02-21T00:51:31;57.57;55.30;63.07;;
71030;Laerm;63723;51.436;5.976;2024-02-21T00:51:41;57.94;55.16;62.67;;
71030;Laerm;63723;51.436;5.976;2024-02-21T00:51:52;58.73;54.78;62.47;;
71030;Laerm;63723;51.436;5.976;2024-02-21T00:52:02;59.51;57.13;61.67;;
71030;Laerm;63723;51.436;5.976;2024-02-21T00:52:12;59.49;56.64;61.62;;
71030;Laerm;63723;51.436;5.976;2024-02-21T00:52:22;59.72;57.59;61.71;;
71030;Laerm;63723;51.436;5.976;2024-02-21T00:52:33;59.53;57.11;61.13;;
71030;Laerm;63723;51.436;5.976;2024-02-21T00:52:43;59.41;56.64;61.36;;
71030;Laerm;63723;51.436;5.976;2024-02-21T00:52:54;59.45;57.54;61.36;;
71030;Laerm;63723;51.436;5.976;2024-02-21T00:53:04;59.42;56.72;61.51;;
71030;Laerm;63723;51.436;5.976;2024-02-21T00:53:15;59.32;56.71;61.31;;
71030;Laerm;63723;51.436;5.976;2024-02-21T00:53:25;59.50;57.34;61.46;;
71030;Laerm;63723;51.436;5.976;2024-02-21T00:53:35;59.04;56.61;61.78;;
71030;Laerm;63723;51.436;5.976;2024-02-21T00:53:48;59.35;56.76;61.19;;
71030;Laerm;63723;51.436;5.976;2024-02-21T00:53:58;59.32;56.88;61.32;;
71030;Laerm;63723;51.436;5.976;2024-02-21T00:54:08;59.19;56.44;61.22;;
71030;Laerm;63723;51.436;5.976;2024-02-21T00:54:19;58.89;56.05;61.23;;
71030;Laerm;63723;51.436;5.976;2024-02-21T00:54:29;58.53;56.43;60.49;;
71030;Laerm;63723;51.436;5.976;2024-02-21T00:54:39;58.67;56.44;61.05;;
71030;Laerm;63723;51.436;5.976;2024-02-21T00:54:49;58.32;55.98;60.35;;
71030;Laerm;63723;51.436;5.976;2024-02-21T00:55:00;59.70;56.72;64.15;;
71030;Laerm;63723;51.436;5.976;2024-02-21T00:55:10;59.96;56.93;64.22;;
71030;Laerm;63723;51.436;5.976;2024-02-21T00:55:20;59.94;56.57;63.01;;
71030;Laerm;63723;51.436;5.976;2024-02-21T00:55:31;60.44;57.00;64.72;;
71030;Laerm;63723;51.436;5.976;2024-02-21T00:55:41;59.89;55.70;64.21;;
71030;Laerm;63723;51.436;5.976;2024-02-21T00:55:53;60.01;56.23;64.73;;
71030;Laerm;63723;51.436;5.976;2024-02-21T00:56:05;59.89;55.01;64.15;;
71030;Laerm;63723;51.436;5.976;2024-02-21T00:56:16;59.80;55.92;63.14;;
71030;Laerm;63723;51.436;5.976;2024-02-21T00:56:26;61.14;55.34;65.33;;
71030;Laerm;63723;51.436;5.976;2024-02-21T00:56:36;60.82;54.69;65.43;;
71030;Laerm;63723;51.436;5.976;2024-02-21T00:56:47;60.43;56.80;65.50;;
71030;Laerm;63723;51.436;5.976;2024-02-21T00:56:57;60.92;57.71;64.28;;
71030;Laerm;63723;51.436;5.976;2024-02-21T00:57:07;60.12;56.40;64.80;;
71030;Laerm;63723;51.436;5.976;2024-02-21T00:57:17;59.58;56.40;62.92;;
71030;Laerm;63723;51.436;5.976;2024-02-21T00:57:28;59.73;56.08;63.64;;
71030;Laerm;63723;51.436;5.976;2024-02-21T00:57:38;60.63;56.36;65.40;;
71030;Laerm;63723;51.436;5.976;2024-02-21T00:57:49;60.27;56.07;63.67;;
71030;Laerm;63723;51.436;5.976;2024-02-21T00:57:59;59.74;55.96;62.85;;
71030;Laerm;63723;51.436;5.976;2024-02-21T00:58:09;59.52;55.41;63.77;;
71030;Laerm;63723;51.436;5.976;2024-02-21T00:58:19;59.40;55.78;63.22;;
71030;Laerm;63723;51.436;5.976;2024-02-21T00:58:30;59.63;56.32;64.27;;